createdAt,value
2019-05-20T00:00:55.317Z,989.50
2019-05-20T00:01:55.305Z,989.51
2019-05-20T00:02:55.287Z,989.51
2019-05-20T00:03:55.264Z,989.48
2019-05-20T00:04:55.263Z,989.46
2019-05-20T00:05:55.322Z,989.48
2019-05-20T00:06:55.236Z,989.51
2019-05-20T00:07:55.270Z,989.50
2019-05-20T00:08:55.226Z,989.44
2019-05-20T00:09:55.205Z,989.48
2019-05-20T00:10:55.210Z,989.48
2019-05-20T00:11:55.174Z,989.45
2019-05-20T00:12:55.483Z,989.49
2019-05-20T00:13:55.195Z,989.42
2019-05-20T00:14:55.148Z,989.46
2019-05-20T00:15:55.156Z,989.47
2019-05-20T00:16:55.918Z,989.44
2019-05-20T00:17:55.116Z,989.47
2019-05-20T00:18:55.110Z,989.48
2019-05-20T00:19:55.087Z,989.44
2019-05-20T00:20:55.117Z,989.41
2019-05-20T00:21:55.073Z,989.41
2019-05-20T00:22:55.053Z,989.42
2019-05-20T00:23:55.058Z,989.40
2019-05-20T00:24:55.053Z,989.40
2019-05-20T00:25:55.037Z,989.39
2019-05-20T00:26:55.048Z,989.41
2019-05-20T00:27:55.006Z,989.39
2019-05-20T00:28:54.992Z,989.40
2019-05-20T00:29:54.992Z,989.39
2019-05-20T00:30:54.977Z,989.36
2019-05-20T00:31:54.963Z,989.43
2019-05-20T00:32:54.973Z,989.39
2019-05-20T00:33:54.947Z,989.42
2019-05-20T00:34:54.982Z,989.44
2019-05-20T00:35:54.925Z,989.44
2019-05-20T00:36:54.907Z,989.44
2019-05-20T00:37:54.922Z,989.48
2019-05-20T00:38:54.895Z,989.50
2019-05-20T00:39:54.880Z,989.45
2019-05-20T00:40:54.873Z,989.45
2019-05-20T00:41:54.856Z,989.44
2019-05-20T00:42:54.872Z,989.46
2019-05-20T00:43:54.832Z,989.48
2019-05-20T00:44:54.816Z,989.47
2019-05-20T00:45:54.826Z,989.48
2019-05-20T00:46:54.801Z,989.53
2019-05-20T00:47:54.794Z,989.52
2019-05-20T00:48:54.793Z,989.51
2019-05-20T00:49:54.763Z,989.46
2019-05-20T00:50:54.763Z,989.48
2019-05-20T00:51:54.753Z,989.48
2019-05-20T00:52:54.731Z,989.47
2019-05-20T00:53:54.785Z,989.48
2019-05-20T00:54:54.734Z,989.44
2019-05-20T00:55:54.711Z,989.41
2019-05-20T00:56:54.689Z,989.42
2019-05-20T00:57:54.704Z,989.39
2019-05-20T00:58:54.674Z,989.35
2019-05-20T00:59:54.674Z,989.34
2019-05-20T01:00:54.674Z,989.33
2019-05-20T01:01:54.644Z,989.32
2019-05-20T01:02:57.232Z,989.33
2019-05-20T01:03:54.611Z,989.34
2019-05-20T01:04:54.621Z,989.28
2019-05-20T01:05:54.630Z,989.27
2019-05-20T01:06:54.605Z,989.25
2019-05-20T01:07:54.574Z,989.20
2019-05-20T01:08:54.575Z,989.24
2019-05-20T01:09:54.560Z,989.23
2019-05-20T01:10:54.537Z,989.26
2019-05-20T01:11:54.552Z,989.21
2019-05-20T01:12:54.512Z,989.25
2019-05-20T01:13:54.509Z,989.23
2019-05-20T01:14:54.502Z,989.26
2019-05-20T01:15:54.492Z,989.25
2019-05-20T01:16:54.511Z,989.27
2019-05-20T01:17:54.463Z,989.30
2019-05-20T01:18:54.463Z,989.29
2019-05-20T01:19:54.454Z,989.28
2019-05-20T01:20:54.430Z,989.26
2019-05-20T01:21:54.434Z,989.30
2019-05-20T01:22:54.430Z,989.33
2019-05-20T01:23:54.400Z,989.29
2019-05-20T01:24:54.422Z,989.33
2019-05-20T01:25:54.381Z,989.36
2019-05-20T01:26:54.391Z,989.38
2019-05-20T01:27:54.359Z,989.41
2019-05-20T01:28:54.347Z,989.41
2019-05-20T01:29:54.341Z,989.46
2019-05-20T01:30:54.351Z,989.49
2019-05-20T01:31:54.355Z,989.52
2019-05-20T01:32:54.302Z,989.52
2019-05-20T01:33:54.290Z,989.54
2019-05-20T01:34:54.279Z,989.55
2019-05-20T01:35:54.268Z,989.53
2019-05-20T01:36:54.270Z,989.53
2019-05-20T01:37:54.278Z,989.53
2019-05-20T01:38:54.251Z,989.54
2019-05-20T01:39:54.252Z,989.55
2019-05-20T01:40:54.218Z,989.55
2019-05-20T01:41:54.199Z,989.58
2019-05-20T01:42:54.196Z,989.54
2019-05-20T01:43:54.239Z,989.61
2019-05-20T01:44:54.180Z,989.58
2019-05-20T01:45:54.160Z,989.56
2019-05-20T01:46:54.165Z,989.57
2019-05-20T01:47:54.171Z,989.57
2019-05-20T01:48:54.142Z,989.60
2019-05-20T01:49:54.153Z,989.64
2019-05-20T01:50:54.132Z,989.64
2019-05-20T01:51:54.098Z,989.65
2019-05-20T01:52:54.112Z,989.64
2019-05-20T01:53:54.090Z,989.66
2019-05-20T01:54:54.068Z,989.71
2019-05-20T01:55:54.061Z,989.70
2019-05-20T01:56:54.037Z,989.67
2019-05-20T01:57:54.060Z,989.67
2019-05-20T01:58:54.027Z,989.69
2019-05-20T01:59:54.015Z,989.69
2019-05-20T02:00:54.036Z,989.69
2019-05-20T02:01:53.999Z,989.69
2019-05-20T02:02:53.982Z,989.69
2019-05-20T02:03:53.993Z,989.67
2019-05-20T02:04:53.949Z,989.67
2019-05-20T02:05:53.964Z,989.68
2019-05-20T02:06:53.959Z,989.66
2019-05-20T02:07:53.933Z,989.59
2019-05-20T02:08:53.972Z,989.64
2019-05-20T02:09:53.906Z,989.66
2019-05-20T02:10:56.583Z,989.66
2019-05-20T02:11:53.887Z,989.64
2019-05-20T02:12:53.878Z,989.67
2019-05-20T02:13:53.886Z,989.66
2019-05-20T02:14:53.860Z,989.63
2019-05-20T02:15:53.849Z,989.58
2019-05-20T02:16:53.826Z,989.67
2019-05-20T02:17:53.827Z,989.64
2019-05-20T02:18:53.807Z,989.65
2019-05-20T02:19:53.807Z,989.64
2019-05-20T02:20:53.801Z,989.67
2019-05-20T02:21:53.779Z,989.59
2019-05-20T02:22:53.769Z,989.57
2019-05-20T02:23:53.770Z,989.53
2019-05-20T02:24:53.757Z,989.52
2019-05-20T02:25:53.760Z,989.48
2019-05-20T02:26:53.720Z,989.47
2019-05-20T02:27:53.720Z,989.54
2019-05-20T02:28:53.697Z,989.44
2019-05-20T02:29:53.701Z,989.45
2019-05-20T02:30:56.803Z,989.52
2019-05-20T02:31:53.691Z,989.52
2019-05-20T02:32:53.669Z,989.54
2019-05-20T02:33:53.656Z,989.52
2019-05-20T02:34:53.659Z,989.50
2019-05-20T02:35:53.631Z,989.52
2019-05-20T02:36:53.606Z,989.55
2019-05-20T02:37:53.604Z,989.52
2019-05-20T02:38:53.594Z,989.51
2019-05-20T02:39:53.614Z,989.52
2019-05-20T02:40:53.588Z,989.49
2019-05-20T02:41:53.560Z,989.49
2019-05-20T02:42:53.638Z,989.52
2019-05-20T02:43:53.542Z,989.54
2019-05-20T02:44:53.547Z,989.57
2019-05-20T02:45:53.542Z,989.53
2019-05-20T02:46:53.507Z,989.55
2019-05-20T02:47:53.495Z,989.54
2019-05-20T02:48:53.482Z,989.51
2019-05-20T02:49:53.488Z,989.54
2019-05-20T02:50:53.492Z,989.52
2019-05-20T02:51:53.456Z,989.54
2019-05-20T02:52:53.459Z,989.51
2019-05-20T02:53:53.436Z,989.49
2019-05-20T02:54:53.414Z,989.54
2019-05-20T02:55:53.404Z,989.55
2019-05-20T02:56:53.418Z,989.57
2019-05-20T02:57:53.398Z,989.57
2019-05-20T02:58:53.377Z,989.58
2019-05-20T02:59:53.371Z,989.58
2019-05-20T03:00:53.358Z,989.56
2019-05-20T03:01:53.385Z,989.59
2019-05-20T03:02:53.366Z,989.59
2019-05-20T03:04:09.836Z,989.62
2019-05-20T03:04:54.315Z,989.63
2019-05-20T03:05:53.309Z,989.63
2019-05-20T03:06:53.298Z,989.64
2019-05-20T03:07:53.276Z,989.66
2019-05-20T03:08:53.295Z,989.69
2019-05-20T03:09:53.267Z,989.72
2019-05-20T03:10:53.254Z,989.71
2019-05-20T03:11:53.245Z,989.68
2019-05-20T03:12:53.248Z,989.74
2019-05-20T03:13:53.205Z,989.75
2019-05-20T03:14:53.227Z,989.72
2019-05-20T03:15:53.198Z,989.74
2019-05-20T03:16:53.178Z,989.70
2019-05-20T03:17:53.165Z,989.74
2019-05-20T03:18:53.167Z,989.72
2019-05-20T03:19:53.178Z,989.73
2019-05-20T03:20:53.138Z,989.72
2019-05-20T03:21:53.118Z,989.64
2019-05-20T03:22:53.117Z,989.64
2019-05-20T03:23:53.130Z,989.65
2019-05-20T03:24:53.096Z,989.66
2019-05-20T03:25:53.104Z,989.68
2019-05-20T03:26:53.082Z,989.65
2019-05-20T03:27:53.058Z,989.64
2019-05-20T03:28:53.062Z,989.67
2019-05-20T03:29:53.054Z,989.69
2019-05-20T03:30:53.086Z,989.71
2019-05-20T03:31:53.028Z,989.70
2019-05-20T03:32:53.006Z,989.75
2019-05-20T03:33:53.608Z,989.78
2019-05-20T03:34:59.988Z,989.81
2019-05-20T03:35:53.998Z,989.84
2019-05-20T03:36:52.977Z,989.87
2019-05-20T03:37:53.014Z,989.88
2019-05-20T03:38:52.974Z,989.90
2019-05-20T03:39:52.933Z,989.88
2019-05-20T03:40:52.938Z,989.86
2019-05-20T03:41:52.903Z,989.86
2019-05-20T03:42:53.181Z,989.86
2019-05-20T03:43:52.969Z,989.79
2019-05-20T03:44:52.886Z,989.77
2019-05-20T03:45:52.907Z,989.79
2019-05-20T03:46:52.874Z,989.74
2019-05-20T03:47:52.864Z,989.75
2019-05-20T03:48:52.885Z,989.70
2019-05-20T03:49:52.844Z,989.77
2019-05-20T03:50:52.828Z,989.78
2019-05-20T03:51:52.802Z,989.79
2019-05-20T03:52:52.823Z,989.77
2019-05-20T03:53:52.803Z,989.74
2019-05-20T03:54:52.784Z,989.79
2019-05-20T03:55:52.752Z,989.77
2019-05-20T03:56:52.769Z,989.78
2019-05-20T03:57:52.744Z,989.80
2019-05-20T03:58:52.757Z,989.80
2019-05-20T03:59:52.741Z,989.81
2019-05-20T04:00:52.809Z,989.81
2019-05-20T04:01:52.725Z,989.83
2019-05-20T04:02:52.679Z,989.93
2019-05-20T04:03:52.695Z,989.96
2019-05-20T04:05:02.525Z,989.96
2019-05-20T04:05:53.688Z,990.03
2019-05-20T04:06:52.668Z,990.02
2019-05-20T04:07:52.632Z,990.04
2019-05-20T04:08:52.624Z,990.09
2019-05-20T04:09:52.609Z,990.07
2019-05-20T04:10:52.641Z,990.09
2019-05-20T04:11:52.619Z,990.10
2019-05-20T04:12:52.569Z,990.14
2019-05-20T04:13:52.640Z,990.17
2019-05-20T04:14:52.567Z,990.21
2019-05-20T04:15:52.550Z,990.21
2019-05-20T04:16:52.569Z,990.21
2019-05-20T04:17:52.510Z,990.20
2019-05-20T04:18:54.135Z,990.16
2019-05-20T04:19:52.505Z,990.18
2019-05-20T04:20:52.483Z,990.13
2019-05-20T04:21:52.491Z,990.19
2019-05-20T04:22:52.459Z,990.16
2019-05-20T04:23:52.459Z,990.13
2019-05-20T04:24:52.443Z,990.12
2019-05-20T04:25:52.461Z,990.09
2019-05-20T04:26:52.499Z,990.11
2019-05-20T04:27:52.437Z,990.13
2019-05-20T04:28:52.422Z,990.13
2019-05-20T04:29:52.398Z,990.15
2019-05-20T04:30:52.403Z,990.18
2019-05-20T04:31:52.383Z,990.18
2019-05-20T04:32:52.359Z,990.17
2019-05-20T04:33:52.378Z,990.16
2019-05-20T04:34:52.356Z,990.21
2019-05-20T04:35:52.339Z,990.21
2019-05-20T04:36:52.309Z,990.19
2019-05-20T04:37:52.334Z,990.19
2019-05-20T04:38:52.611Z,990.19
2019-05-20T04:39:52.310Z,990.21
2019-05-20T04:40:52.286Z,990.25
2019-05-20T04:41:52.260Z,990.26
2019-05-20T04:42:52.241Z,990.23
2019-05-20T04:43:52.251Z,990.27
2019-05-20T04:44:52.277Z,990.24
2019-05-20T04:45:52.221Z,990.22
2019-05-20T04:46:52.250Z,990.23
2019-05-20T04:47:52.190Z,990.19
2019-05-20T04:48:52.218Z,990.18
2019-05-20T04:49:52.198Z,990.09
2019-05-20T04:50:53.052Z,990.07
2019-05-20T04:51:52.438Z,990.06
2019-05-20T04:52:52.266Z,990.09
2019-05-20T04:53:52.137Z,990.08
2019-05-20T04:54:52.111Z,990.06
2019-05-20T04:55:52.233Z,990.06
2019-05-20T04:56:52.097Z,990.04
2019-05-20T04:57:52.157Z,990.02
2019-05-20T04:58:52.720Z,990.08
2019-05-20T04:59:52.557Z,990.10
2019-05-20T05:00:52.086Z,990.10
2019-05-20T05:01:52.049Z,990.09
2019-05-20T05:02:52.086Z,990.15
2019-05-20T05:03:52.037Z,990.17
2019-05-20T05:04:52.038Z,990.20
2019-05-20T05:05:52.071Z,990.22
2019-05-20T05:06:51.999Z,990.26
2019-05-20T05:07:51.990Z,990.28
2019-05-20T05:08:51.957Z,990.30
2019-05-20T05:09:52.009Z,990.30
2019-05-20T05:10:51.951Z,990.32
2019-05-20T05:11:51.971Z,990.32
2019-05-20T05:12:51.942Z,990.31
2019-05-20T05:13:53.126Z,990.29
2019-05-20T05:14:51.914Z,990.35
2019-05-20T05:15:51.908Z,990.31
2019-05-20T05:16:51.878Z,990.37
2019-05-20T05:17:51.909Z,990.38
2019-05-20T05:18:51.867Z,990.30
2019-05-20T05:19:51.853Z,990.34
2019-05-20T05:20:51.843Z,990.36
2019-05-20T05:21:51.862Z,990.39
2019-05-20T05:22:51.816Z,990.41
2019-05-20T05:23:59.200Z,990.40
2019-05-20T05:24:52.794Z,990.42
2019-05-20T05:25:51.785Z,990.42
2019-05-20T05:26:51.776Z,990.42
2019-05-20T05:27:51.767Z,990.36
2019-05-20T05:28:52.845Z,990.36
2019-05-20T05:29:51.744Z,990.31
2019-05-20T05:30:51.735Z,990.29
2019-05-20T05:31:51.727Z,990.27
2019-05-20T05:32:51.706Z,990.16
2019-05-20T05:33:54.330Z,990.19
2019-05-20T05:34:51.756Z,990.21
2019-05-20T05:35:53.522Z,990.20
2019-05-20T05:36:51.669Z,990.19
2019-05-20T05:37:51.876Z,990.21
2019-05-20T05:38:51.670Z,990.23
2019-05-20T05:39:51.652Z,990.26
2019-05-20T05:40:51.678Z,990.23
2019-05-20T05:41:51.671Z,990.27
2019-05-20T05:42:51.616Z,990.27
2019-05-20T05:43:51.639Z,990.24
2019-05-20T05:44:51.588Z,990.28
2019-05-20T05:45:51.663Z,990.32
2019-05-20T05:46:51.564Z,990.23
2019-05-20T05:47:51.567Z,990.25
2019-05-20T05:48:51.548Z,990.24
2019-05-20T05:49:51.657Z,990.22
2019-05-20T05:50:51.544Z,990.25
2019-05-20T05:51:51.495Z,990.25
2019-05-20T05:52:51.560Z,990.27
2019-05-20T05:53:51.531Z,990.29
2019-05-20T05:54:51.479Z,990.28
2019-05-20T05:55:51.469Z,990.27
2019-05-20T05:56:51.483Z,990.31
2019-05-20T05:57:51.455Z,990.34
2019-05-20T05:58:51.499Z,990.33
2019-05-20T05:59:51.415Z,990.32
2019-05-20T06:00:51.417Z,990.33
2019-05-20T06:01:51.388Z,990.31
2019-05-20T06:02:51.503Z,990.36
2019-05-20T06:03:51.532Z,990.32
2019-05-20T06:04:51.378Z,990.34
2019-05-20T06:05:51.378Z,990.39
2019-05-20T06:06:51.347Z,990.39
2019-05-20T06:07:51.336Z,990.39
2019-05-20T06:08:51.351Z,990.37
2019-05-20T06:09:51.331Z,990.38
2019-05-20T06:10:51.297Z,990.36
2019-05-20T06:11:51.284Z,990.37
2019-05-20T06:12:51.296Z,990.39
2019-05-20T06:13:51.275Z,990.36
2019-05-20T06:14:51.309Z,990.37
2019-05-20T06:15:54.163Z,990.43
2019-05-20T06:16:51.234Z,990.38
2019-05-20T06:17:51.215Z,990.39
2019-05-20T06:18:51.212Z,990.42
2019-05-20T06:19:51.196Z,990.40
2019-05-20T06:20:51.215Z,990.38
2019-05-20T06:21:51.182Z,990.36
2019-05-20T06:22:51.164Z,990.36
2019-05-20T06:23:51.167Z,990.39
2019-05-20T06:24:51.724Z,990.42
2019-05-20T06:25:51.136Z,990.41
2019-05-20T06:26:51.147Z,990.41
2019-05-20T06:27:51.114Z,990.44
2019-05-20T06:28:51.093Z,990.45
2019-05-20T06:29:52.253Z,990.42
2019-05-20T06:30:51.086Z,990.46
2019-05-20T06:31:51.055Z,990.44
2019-05-20T06:32:51.092Z,990.47
2019-05-20T06:33:51.071Z,990.51
2019-05-20T06:34:51.036Z,990.49
2019-05-20T06:35:51.021Z,990.53
2019-05-20T06:36:51.028Z,990.53
2019-05-20T06:37:51.026Z,990.49
2019-05-20T06:38:50.984Z,990.57
2019-05-20T06:39:51.373Z,990.52
2019-05-20T06:40:50.982Z,990.55
2019-05-20T06:41:50.945Z,990.59
2019-05-20T06:42:51.021Z,990.59
2019-05-20T06:43:50.949Z,990.61
2019-05-20T06:44:53.968Z,990.60
2019-05-20T06:45:51.920Z,990.60
2019-05-20T06:46:50.938Z,990.59
2019-05-20T06:47:50.919Z,990.58
2019-05-20T06:48:50.991Z,990.57
2019-05-20T06:49:50.870Z,990.61
2019-05-20T06:50:50.874Z,990.59
2019-05-20T06:51:50.860Z,990.62
2019-05-20T06:52:51.113Z,990.60
2019-05-20T06:53:50.834Z,990.53
2019-05-20T06:54:50.824Z,990.51
2019-05-20T06:55:50.805Z,990.60
2019-05-20T06:56:50.845Z,990.57
2019-05-20T06:57:50.801Z,990.57
2019-05-20T06:58:50.867Z,990.55
2019-05-20T06:59:50.803Z,990.57
2019-05-20T07:00:50.767Z,990.61
2019-05-20T07:01:50.760Z,990.63
2019-05-20T07:02:52.194Z,990.65
2019-05-20T07:03:50.761Z,990.66
2019-05-20T07:04:50.759Z,990.66
2019-05-20T07:05:50.694Z,990.66
2019-05-20T07:06:50.691Z,990.63
2019-05-20T07:07:50.691Z,990.59
2019-05-20T07:08:50.681Z,990.60
2019-05-20T07:09:50.673Z,990.60
2019-05-20T07:10:50.662Z,990.59
2019-05-20T07:11:53.117Z,990.61
2019-05-20T07:12:50.631Z,990.63
2019-05-20T07:13:50.684Z,990.64
2019-05-20T07:14:50.611Z,990.66
2019-05-20T07:15:50.581Z,990.62
2019-05-20T07:16:50.587Z,990.61
2019-05-20T07:17:50.581Z,990.61
2019-05-20T07:18:50.607Z,990.64
2019-05-20T07:19:50.563Z,990.69
2019-05-20T07:20:50.529Z,990.68
2019-05-20T07:21:50.533Z,990.69
2019-05-20T07:22:56.000Z,990.69
2019-05-20T07:23:52.499Z,990.71
2019-05-20T07:24:50.547Z,990.71
2019-05-20T07:25:50.485Z,990.74
2019-05-20T07:26:50.497Z,990.78
2019-05-20T07:27:50.467Z,990.74
2019-05-20T07:28:50.469Z,990.72
2019-05-20T07:29:50.485Z,990.72
2019-05-20T07:30:50.418Z,990.74
2019-05-20T07:31:50.425Z,990.75
2019-05-20T07:32:50.431Z,990.79
2019-05-20T07:33:50.387Z,990.74
2019-05-20T07:34:50.404Z,990.74
2019-05-20T07:35:50.385Z,990.74
2019-05-20T07:37:02.492Z,990.78
2019-05-20T07:37:51.357Z,990.78
2019-05-20T07:38:50.364Z,990.74
2019-05-20T07:39:50.343Z,990.76
2019-05-20T07:40:50.448Z,990.71
2019-05-20T07:41:50.359Z,990.76
2019-05-20T07:42:50.296Z,990.72
2019-05-20T07:43:50.288Z,990.77
2019-05-20T07:44:50.285Z,990.71
2019-05-20T07:45:50.261Z,990.70
2019-05-20T07:46:50.294Z,990.74
2019-05-20T07:47:50.244Z,990.73
2019-05-20T07:48:50.339Z,990.73
2019-05-20T07:49:50.222Z,990.72
2019-05-20T07:50:50.235Z,990.69
2019-05-20T07:51:50.223Z,990.72
2019-05-20T07:52:50.193Z,990.69
2019-05-20T07:53:50.207Z,990.68
2019-05-20T07:54:50.167Z,990.68
2019-05-20T07:55:50.152Z,990.67
2019-05-20T07:56:50.154Z,990.61
2019-05-20T07:57:50.142Z,990.62
2019-05-20T07:58:50.123Z,990.66
2019-05-20T07:59:50.124Z,990.66
2019-05-20T08:00:50.101Z,990.71
2019-05-20T08:01:50.584Z,990.65
2019-05-20T08:02:50.158Z,990.70
2019-05-20T08:03:50.082Z,990.64
2019-05-20T08:04:50.080Z,990.65
2019-05-20T08:05:50.105Z,990.64
2019-05-20T08:06:50.125Z,990.68
2019-05-20T08:07:52.391Z,990.67
2019-05-20T08:08:50.033Z,990.64
2019-05-20T08:09:50.038Z,990.64
2019-05-20T08:10:49.992Z,990.71
2019-05-20T08:11:49.982Z,990.70
2019-05-20T08:12:49.998Z,990.69
2019-05-20T08:13:50.001Z,990.74
2019-05-20T08:14:49.993Z,990.72
2019-05-20T08:15:49.961Z,990.76
2019-05-20T08:16:50.023Z,990.73
2019-05-20T08:17:50.007Z,990.77
2019-05-20T08:18:49.967Z,990.77
2019-05-20T08:19:49.887Z,990.84
2019-05-20T08:20:49.899Z,990.85
2019-05-20T08:21:49.894Z,990.81
2019-05-20T08:22:49.908Z,990.87
2019-05-20T08:23:50.395Z,990.83
2019-05-20T08:24:49.862Z,990.82
2019-05-20T08:25:49.879Z,990.83
2019-05-20T08:26:49.836Z,990.82
2019-05-20T08:27:49.812Z,990.80
2019-05-20T08:28:49.855Z,990.82
2019-05-20T08:29:49.815Z,990.83
2019-05-20T08:30:49.779Z,990.84
2019-05-20T08:31:49.773Z,990.82
2019-05-20T08:32:49.750Z,990.85
2019-05-20T08:33:49.753Z,990.87
2019-05-20T08:34:49.736Z,990.85
2019-05-20T08:35:49.762Z,990.82
2019-05-20T08:36:49.721Z,990.80
2019-05-20T08:37:49.711Z,990.85
2019-05-20T08:38:49.703Z,990.85
2019-05-20T08:39:49.683Z,990.84
2019-05-20T08:40:49.695Z,990.86
2019-05-20T08:41:49.663Z,990.83
2019-05-20T08:42:49.654Z,990.86
2019-05-20T08:43:49.662Z,990.86
2019-05-20T08:44:49.635Z,990.88
2019-05-20T08:45:49.649Z,990.89
2019-05-20T08:46:49.870Z,990.93
2019-05-20T08:47:49.614Z,990.92
2019-05-20T08:48:49.599Z,990.90
2019-05-20T08:49:50.648Z,990.94
2019-05-20T08:50:49.564Z,990.92
2019-05-20T08:51:49.565Z,990.89
2019-05-20T08:52:49.591Z,990.88
2019-05-20T08:53:49.537Z,990.90
2019-05-20T08:54:49.529Z,990.86
2019-05-20T08:55:49.537Z,990.89
2019-05-20T08:56:49.557Z,990.91
2019-05-20T08:57:49.485Z,990.92
2019-05-20T08:58:49.549Z,990.88
2019-05-20T08:59:50.431Z,990.90
2019-05-20T09:00:49.465Z,990.90
2019-05-20T09:01:49.434Z,990.92
2019-05-20T09:02:49.434Z,990.87
2019-05-20T09:03:49.436Z,990.89
2019-05-20T09:04:50.151Z,990.92
2019-05-20T09:05:49.404Z,990.94
2019-05-20T09:06:49.431Z,990.94
2019-05-20T09:08:02.235Z,990.94
2019-05-20T09:08:50.380Z,990.92
2019-05-20T09:09:49.368Z,990.96
2019-05-20T09:10:49.352Z,990.97
2019-05-20T09:11:49.341Z,990.97
2019-05-20T09:12:49.370Z,990.95
2019-05-20T09:13:49.405Z,990.97
2019-05-20T09:14:49.323Z,990.94
2019-05-20T09:15:49.295Z,990.97
2019-05-20T09:16:49.301Z,990.98
2019-05-20T09:17:49.331Z,991.03
2019-05-20T09:18:50.422Z,990.97
2019-05-20T09:19:49.262Z,991.02
2019-05-20T09:20:49.232Z,991.02
2019-05-20T09:21:49.223Z,991.03
2019-05-20T09:22:49.272Z,991.04
2019-05-20T09:23:49.292Z,991.05
2019-05-20T09:24:49.513Z,991.05
2019-05-20T09:25:49.190Z,991.13
2019-05-20T09:26:49.160Z,991.16
2019-05-20T09:27:49.175Z,991.16
2019-05-20T09:28:49.143Z,991.18
2019-05-20T09:29:49.183Z,991.16
2019-05-20T09:30:49.276Z,991.20
2019-05-20T09:31:49.144Z,991.17
2019-05-20T09:32:49.145Z,991.19
2019-05-20T09:33:49.113Z,991.14
2019-05-20T09:34:49.086Z,991.16
2019-05-20T09:35:49.136Z,991.18
2019-05-20T09:36:49.080Z,991.19
2019-05-20T09:37:49.165Z,991.17
2019-05-20T09:38:49.036Z,991.16
2019-05-20T09:39:49.031Z,991.21
2019-05-20T09:40:49.042Z,991.20
2019-05-20T09:41:49.026Z,991.23
2019-05-20T09:42:49.037Z,991.20
2019-05-20T09:43:48.997Z,991.20
2019-05-20T09:44:48.987Z,991.20
2019-05-20T09:46:05.515Z,991.17
2019-05-20T09:46:49.966Z,991.18
2019-05-20T09:47:48.954Z,991.16
2019-05-20T09:48:48.927Z,991.15
2019-05-20T09:49:48.930Z,991.23
2019-05-20T09:50:48.910Z,991.19
2019-05-20T09:51:48.934Z,991.22
2019-05-20T09:52:48.890Z,991.21
2019-05-20T09:53:48.922Z,991.20
2019-05-20T09:54:49.052Z,991.19
2019-05-20T09:55:48.865Z,991.19
2019-05-20T09:56:48.841Z,991.22
2019-05-20T09:57:48.860Z,991.22
2019-05-20T09:58:48.841Z,991.23
2019-05-20T09:59:48.813Z,991.24
2019-05-20T10:00:48.813Z,991.28
2019-05-20T10:01:49.867Z,991.27
2019-05-20T10:02:48.771Z,991.31
2019-05-20T10:03:48.803Z,991.24
2019-05-20T10:04:48.760Z,991.31
2019-05-20T10:05:48.766Z,991.31
2019-05-20T10:06:48.765Z,991.34
2019-05-20T10:07:48.736Z,991.38
2019-05-20T10:08:48.724Z,991.39
2019-05-20T10:09:48.714Z,991.40
2019-05-20T10:10:48.726Z,991.40
2019-05-20T10:11:48.692Z,991.39
2019-05-20T10:12:48.684Z,991.41
2019-05-20T10:13:48.733Z,991.36
2019-05-20T10:14:52.534Z,991.34
2019-05-20T10:15:48.666Z,991.34
2019-05-20T10:16:48.737Z,991.36
2019-05-20T10:17:48.636Z,991.40
2019-05-20T10:18:48.825Z,991.36
2019-05-20T10:19:48.614Z,991.36
2019-05-20T10:20:48.604Z,991.36
2019-05-20T10:21:48.614Z,991.40
2019-05-20T10:22:48.602Z,991.37
2019-05-20T10:23:48.564Z,991.33
2019-05-20T10:24:48.541Z,991.27
2019-05-20T10:25:48.535Z,991.29
2019-05-20T10:26:48.535Z,991.29
2019-05-20T10:27:48.513Z,991.25
2019-05-20T10:28:48.493Z,991.26
2019-05-20T10:29:48.493Z,991.24
2019-05-20T10:30:48.484Z,991.28
2019-05-20T10:31:48.520Z,991.27
2019-05-20T10:32:48.476Z,991.28
2019-05-20T10:33:48.459Z,991.25
2019-05-20T10:34:48.433Z,991.32
2019-05-20T10:35:48.432Z,991.29
2019-05-20T10:36:48.422Z,991.26
2019-05-20T10:37:48.435Z,991.30
2019-05-20T10:38:58.767Z,991.26
2019-05-20T10:39:49.382Z,991.30
2019-05-20T10:40:48.385Z,991.29
2019-05-20T10:41:48.376Z,991.31
2019-05-20T10:42:48.358Z,991.31
2019-05-20T10:43:48.342Z,991.35
2019-05-20T10:44:48.356Z,991.32
2019-05-20T10:45:48.303Z,991.35
2019-05-20T10:46:48.331Z,991.33
2019-05-20T10:47:48.294Z,991.32
2019-05-20T10:48:48.290Z,991.33
2019-05-20T10:49:48.298Z,991.32
2019-05-20T10:50:48.286Z,991.34
2019-05-20T10:51:48.259Z,991.31
2019-05-20T10:52:48.240Z,991.35
2019-05-20T10:53:48.233Z,991.38
2019-05-20T10:54:48.216Z,991.39
2019-05-20T10:55:48.239Z,991.40
2019-05-20T10:56:48.215Z,991.41
2019-05-20T10:57:48.184Z,991.42
2019-05-20T10:58:48.169Z,991.46
2019-05-20T10:59:48.170Z,991.43
2019-05-20T11:01:01.719Z,991.38
2019-05-20T11:01:49.155Z,991.42
2019-05-20T11:02:48.153Z,991.44
2019-05-20T11:03:48.124Z,991.39
2019-05-20T11:04:48.162Z,991.37
2019-05-20T11:05:48.116Z,991.39
2019-05-20T11:06:48.083Z,991.43
2019-05-20T11:07:48.149Z,991.43
2019-05-20T11:08:48.072Z,991.42
2019-05-20T11:09:48.062Z,991.44
2019-05-20T11:10:48.141Z,991.39
2019-05-20T11:11:48.071Z,991.44
2019-05-20T11:12:48.055Z,991.44
2019-05-20T11:13:48.017Z,991.44
2019-05-20T11:14:48.036Z,991.47
2019-05-20T11:15:48.105Z,991.41
2019-05-20T11:16:48.008Z,991.46
2019-05-20T11:17:47.999Z,991.44
2019-05-20T11:18:47.956Z,991.46
2019-05-20T11:19:47.968Z,991.45
2019-05-20T11:20:47.947Z,991.47
2019-05-20T11:21:47.937Z,991.50
2019-05-20T11:22:47.923Z,991.55
2019-05-20T11:23:47.937Z,991.54
2019-05-20T11:24:47.912Z,991.51
2019-05-20T11:25:47.887Z,991.50
2019-05-20T11:26:47.935Z,991.51
2019-05-20T11:27:47.926Z,991.53
2019-05-20T11:28:47.862Z,991.49
2019-05-20T11:29:47.856Z,991.51
2019-05-20T11:30:47.857Z,991.50
2019-05-20T11:31:47.823Z,991.52
2019-05-20T11:32:47.804Z,991.50
2019-05-20T11:33:47.832Z,991.53
2019-05-20T11:34:47.927Z,991.48
2019-05-20T11:35:47.784Z,991.49
2019-05-20T11:36:47.768Z,991.50
2019-05-20T11:37:47.758Z,991.52
2019-05-20T11:38:47.745Z,991.56
2019-05-20T11:39:47.758Z,991.56
2019-05-20T11:40:47.739Z,991.55
2019-05-20T11:41:53.256Z,991.55
2019-05-20T11:42:48.702Z,991.52
2019-05-20T11:43:47.716Z,991.59
2019-05-20T11:44:47.762Z,991.55
2019-05-20T11:45:47.724Z,991.56
2019-05-20T11:46:47.659Z,991.53
2019-05-20T11:47:47.659Z,991.54
2019-05-20T11:48:47.641Z,991.51
2019-05-20T11:49:47.624Z,991.55
2019-05-20T11:50:47.635Z,991.51
2019-05-20T11:51:47.687Z,991.52
2019-05-20T11:52:47.651Z,991.52
2019-05-20T11:53:47.594Z,991.50
2019-05-20T11:54:47.680Z,991.52
2019-05-20T11:55:47.565Z,991.56
2019-05-20T11:56:47.556Z,991.54
2019-05-20T11:57:47.572Z,991.51
2019-05-20T11:58:47.575Z,991.51
2019-05-20T11:59:47.568Z,991.50
2019-05-20T12:00:48.205Z,991.49
2019-05-20T12:01:47.517Z,991.52
2019-05-20T12:02:47.492Z,991.50
2019-05-20T12:03:47.478Z,991.46
2019-05-20T12:04:47.628Z,991.53
2019-05-20T12:05:47.498Z,991.48
2019-05-20T12:06:47.453Z,991.47
2019-05-20T12:07:47.428Z,991.49
2019-05-20T12:08:47.437Z,991.48
2019-05-20T12:09:50.016Z,991.45
2019-05-20T12:10:47.416Z,991.48
2019-05-20T12:11:47.412Z,991.44
2019-05-20T12:12:47.386Z,991.43
2019-05-20T12:13:47.378Z,991.39
2019-05-20T12:14:47.492Z,991.38
2019-05-20T12:15:47.344Z,991.42
2019-05-20T12:16:47.358Z,991.44
2019-05-20T12:17:47.350Z,991.43
2019-05-20T12:18:47.340Z,991.41
2019-05-20T12:19:47.335Z,991.48
2019-05-20T12:20:47.308Z,991.43
2019-05-20T12:21:47.323Z,991.43
2019-05-20T12:22:47.345Z,991.41
2019-05-20T12:23:47.268Z,991.35
2019-05-20T12:24:47.282Z,991.36
2019-05-20T12:25:47.275Z,991.39
2019-05-20T12:26:47.242Z,991.36
2019-05-20T12:27:47.217Z,991.40
2019-05-20T12:28:47.216Z,991.36